Terminal Aerodrome Forecast
Issued by NWS Wilmington, NC

Home | Current Version | Previous Version | Text Only | Print | Product List | Glossary On
Versions: 1 2 3 4 5 6 7 8 9 10 11 12 13 14 15
477
FTUS42 KILM 011132
TAFMYR
TAF
KMYR 011132Z 0112/0212 34005KT P6SM SCT015 BKN080
      TEMPO 0114/0116 BKN020
     FM011700 14008KT P6SM SCT035 SCT090 SCT250
     FM020200 19003KT P6SM SCT045 SCT250
     FM020500 VRB03KT P6SM SCT070 SCT250
     FM020900 VRB03KT 5SM BR SCT070 SCT250=

USA.gov is the U.S. government's official web portal to all federal, state and local government web resources and services.